Time;durP1;ratioP1;P1;durP2;ratioP2;P2;SDS_P1;SDS_P2;PMS_P1;PMS_P2;Temp;Humidity;BMP_temperature;BMP_pressure;BME280_temperature;BME280_humidity;BME280_pressure;Samples;Min_cycle;Max_cycle;Signal;HPM_P1;HPM_P2
2022/03/18 00:00:33;;;;;;;8.18;5.07;;;10.80;99.90;;;;;;1017144;29;20020;-68
2022/03/18 00:01:03;;;;;;;6.70;4.68;;;10.80;99.90;;;;;;1019034;29;20039;-68
2022/03/18 00:01:33;;;;;;;7.27;5.37;;;10.80;99.90;;;;;;1018658;29;20019;-67
2022/03/18 00:02:04;;;;;;;7.67;5.10;;;10.80;99.90;;;;;;1019324;29;20122;-67
2022/03/18 00:02:35;;;;;;;8.25;4.93;;;10.70;99.90;;;;;;1019024;29;20434;-70
2022/03/18 00:03:06;;;;;;;7.50;4.87;;;10.70;99.90;;;;;;1019230;29;20435;-69
2022/03/18 00:03:36;;;;;;;6.13;5.03;;;10.70;99.90;;;;;;1018933;29;20026;-68
2022/03/18 00:04:07;;;;;;;8.83;5.17;;;10.80;99.90;;;;;;1019252;29;20026;-67
2022/03/18 00:04:37;;;;;;;6.60;4.77;;;10.70;99.90;;;;;;1019157;29;20020;-68
2022/03/18 00:05:08;;;;;;;6.97;4.87;;;10.70;99.90;;;;;;1019148;29;20026;-69
2022/03/18 00:05:39;;;;;;;7.20;4.80;;;10.70;99.90;;;;;;1018832;29;20023;-66
2022/03/18 00:06:12;;;;;;;9.67;5.23;;;10.70;99.90;;;;;;1019366;29;20258;-69
2022/03/18 00:06:43;;;;;;;6.88;4.70;;;10.70;99.90;;;;;;1018529;29;20054;-68
2022/03/18 00:07:15;;;;;;;7.03;5.17;;;10.70;99.90;;;;;;1016215;29;20074;-70
2022/03/18 00:07:45;;;;;;;7.43;5.25;;;10.70;99.90;;;;;;1018902;29;20023;-68
2022/03/18 00:08:16;;;;;;;6.27;4.70;;;10.70;99.90;;;;;;1018838;29;20023;-68
2022/03/18 00:08:46;;;;;;;5.90;4.30;;;10.70;99.90;;;;;;1019126;29;20030;-69
2022/03/18 00:09:17;;;;;;;7.10;4.77;;;10.70;99.90;;;;;;1018823;29;20047;-68
2022/03/18 00:09:48;;;;;;;9.37;5.03;;;10.70;99.90;;;;;;1019433;29;20154;-69
2022/03/18 00:10:19;;;;;;;6.55;5.05;;;10.70;99.90;;;;;;1019047;29;20020;-68
2022/03/18 00:10:50;;;;;;;9.35;5.47;;;10.70;99.90;;;;;;1019200;29;20023;-69
2022/03/18 00:11:20;;;;;;;8.00;4.90;;;10.70;99.90;;;;;;1018896;29;20035;-69
2022/03/18 00:11:51;;;;;;;7.87;5.07;;;10.70;99.90;;;;;;1019288;29;20016;-68
2022/03/18 00:12:21;;;;;;;8.33;5.57;;;10.70;99.90;;;;;;1018657;29;20570;-69
2022/03/18 00:12:53;;;;;;;6.67;4.93;;;10.70;99.90;;;;;;1018806;29;20032;-68
2022/03/18 00:13:23;;;;;;;7.53;5.05;;;10.70;99.90;;;;;;1018100;29;20541;-68
2022/03/18 00:13:55;;;;;;;8.77;5.20;;;10.60;99.90;;;;;;1014500;29;20522;-68
2022/03/18 00:14:26;;;;;;;7.90;4.40;;;10.60;99.90;;;;;;1016572;29;20030;-67
2022/03/18 00:14:56;;;;;;;7.30;5.13;;;10.60;99.90;;;;;;1015291;29;20079;-68
2022/03/18 00:15:27;;;;;;;9.17;5.90;;;10.60;99.90;;;;;;1015727;29;20050;-67
2022/03/18 00:15:58;;;;;;;6.15;4.18;;;10.60;99.90;;;;;;1018803;29;20065;-69
2022/03/18 00:16:29;;;;;;;6.38;3.88;;;10.60;99.90;;;;;;1018970;29;20019;-67
2022/03/18 00:16:59;;;;;;;7.57;5.13;;;10.60;99.90;;;;;;1019103;29;20035;-67
2022/03/18 00:17:30;;;;;;;7.10;5.00;;;10.60;99.90;;;;;;1019060;29;20726;-68
2022/03/18 00:18:00;;;;;;;7.10;4.93;;;10.60;99.90;;;;;;1018933;29;20078;-69
2022/03/18 00:18:31;;;;;;;5.10;4.30;;;10.60;99.90;;;;;;1018897;29;20091;-67
2022/03/18 00:19:01;;;;;;;7.23;4.70;;;10.60;99.90;;;;;;1019013;29;20016;-67
2022/03/18 00:19:33;;;;;;;7.37;4.97;;;10.60;99.90;;;;;;1018185;29;20054;-66
2022/03/18 00:20:09;;;;;;;7.10;4.43;;;10.60;99.90;;;;;;1019149;29;20016;-68
2022/03/18 00:20:40;;;;;;;6.22;4.20;;;10.60;99.90;;;;;;1018383;29;20020;-65
2022/03/18 00:21:10;;;;;;;6.77;5.10;;;10.50;99.90;;;;;;1018931;29;20023;-69
2022/03/18 00:21:41;;;;;;;6.63;4.40;;;10.50;99.90;;;;;;1018700;29;20506;-67
2022/03/18 00:22:12;;;;;;;5.80;4.50;;;10.50;99.90;;;;;;1019143;29;20016;-67
2022/03/18 00:22:44;;;;;;;7.05;4.13;;;10.50;99.90;;;;;;1018943;29;20051;-67
2022/03/18 00:23:14;;;;;;;7.38;4.45;;;10.50;99.90;;;;;;1019141;29;20858;-67
2022/03/18 00:23:45;;;;;;;8.67;4.77;;;10.50;99.90;;;;;;1018349;29;20496;-67
2022/03/18 00:24:15;;;;;;;7.00;4.57;;;10.50;99.90;;;;;;1018746;29;20058;-67
2022/03/18 00:24:46;;;;;;;6.43;4.97;;;10.50;99.90;;;;;;1018541;29;20099;-67
2022/03/18 00:25:18;;;;;;;8.90;5.07;;;10.50;99.90;;;;;;1019182;29;20200;-68
2022/03/18 00:25:48;;;;;;;8.27;5.07;;;10.50;99.90;;;;;;1018418;29;20105;-67
2022/03/18 00:26:19;;;;;;;6.40;4.30;;;10.50;99.90;;;;;;1018665;29;20015;-67
2022/03/18 00:26:49;;;;;;;7.43;4.57;;;10.50;99.90;;;;;;1018734;29;20015;-69
2022/03/18 00:27:20;;;;;;;6.77;4.20;;;10.50;99.90;;;;;;1018523;29;20500;-68
2022/03/18 00:27:51;;;;;;;7.57;4.63;;;10.50;99.90;;;;;;1018946;29;20112;-67
2022/03/18 00:28:21;;;;;;;6.23;4.47;;;10.40;99.90;;;;;;1018764;29;20479;-66
2022/03/18 00:29:10;;;;;;;7.63;4.77;;;10.40;99.90;;;;;;1018671;29;20032;-68
2022/03/18 00:29:59;;;;;;;6.40;4.40;;;10.50;99.90;;;;;;1016485;29;20197;-66
2022/03/18 00:31:08;;;;;;;8.57;4.30;;;10.50;99.90;;;;;;1016332;29;20025;-67
2022/03/18 00:31:58;;;;;;;8.75;4.75;;;10.40;99.90;;;;;;1018675;29;20138;-68
2022/03/18 00:32:28;;;;;;;8.63;4.25;;;10.40;99.90;;;;;;1018888;29;20051;-68
2022/03/18 00:32:59;;;;;;;6.77;3.83;;;10.40;99.90;;;;;;1019178;29;20034;-68
2022/03/18 00:38:58;;;;;;;5.75;4.28;;;10.40;99.90;;;;;;1018699;29;20087;-67
2022/03/18 00:39:29;;;;;;;7.75;3.85;;;10.40;99.90;;;;;;1019050;29;20032;-68
2022/03/18 00:40:19;;;;;;;6.65;3.70;;;10.40;99.90;;;;;;1019097;29;20432;-69
2022/03/18 00:44:50;;;;;;;8.52;4.53;;;10.40;99.90;;;;;;1018773;29;20603;-67
2022/03/18 00:53:37;;;;;;;8.00;4.22;;;10.30;99.90;;;;;;1018946;29;20047;-69
2022/03/18 01:05:09;;;;;;;6.68;4.60;;;10.10;99.90;;;;;;1014950;29;20039;-67
2022/03/18 01:07:55;;;;;;;6.38;4.22;;;10.10;99.90;;;;;;1018865;29;20055;-69
2022/03/18 01:08:45;;;;;;;10.02;4.05;;;10.10;99.90;;;;;;1018740;29;20040;-70
2022/03/18 01:10:44;;;;;;;6.60;3.70;;;10.10;99.90;;;;;;1019062;29;20046;-68
2022/03/18 01:16:24;;;;;;;7.85;4.43;;;10.00;99.90;;;;;;1018741;29;20414;-68
2022/03/18 01:17:14;;;;;;;6.65;4.25;;;10.00;99.90;;;;;;1019238;29;20250;-68
2022/03/18 01:17:59;;;;;;;5.90;4.13;;;10.00;99.90;;;;;;1018579;29;20086;-69
2022/03/18 01:18:30;;;;;;;8.07;4.53;;;10.00;99.90;;;;;;1018877;29;20012;-69
2022/03/18 01:19:01;;;;;;;6.70;4.10;;;10.00;99.90;;;;;;1018850;29;20035;-67
2022/03/18 01:19:31;;;;;;;8.50;4.67;;;10.00;99.90;;;;;;1018964;29;20027;-68
2022/03/18 01:20:02;;;;;;;7.43;3.93;;;10.00;99.90;;;;;;1019074;29;20028;-68
2022/03/18 01:20:33;;;;;;;7.22;4.20;;;10.00;99.90;;;;;;1018656;29;20016;-67
2022/03/18 01:21:04;;;;;;;10.17;4.50;;;10.00;99.90;;;;;;1018956;29;20039;-68
2022/03/18 01:21:35;;;;;;;8.27;5.03;;;10.00;99.90;;;;;;1018731;29;20114;-68
2022/03/18 01:22:09;;;;;;;9.02;4.25;;;9.90;99.90;;;;;;1018708;29;20027;-68
2022/03/18 01:22:39;;;;;;;7.10;4.43;;;10.00;99.90;;;;;;1018266;29;20049;-69
2022/03/18 01:23:11;;;;;;;8.47;4.13;;;10.00;99.90;;;;;;1018732;29;20012;-68
2022/03/18 01:23:41;;;;;;;6.85;4.60;;;9.90;99.90;;;;;;1014823;29;20031;-68
2022/03/18 01:24:12;;;;;;;5.53;4.23;;;9.90;99.90;;;;;;1018671;29;20030;-68
2022/03/18 01:24:42;;;;;;;7.00;4.13;;;9.90;99.90;;;;;;1018652;29;20024;-68
2022/03/18 01:25:13;;;;;;;7.13;4.53;;;9.90;99.90;;;;;;1019112;29;20094;-69
2022/03/18 01:25:43;;;;;;;6.00;4.07;;;9.90;99.90;;;;;;1019365;29;20020;-69
2022/03/18 01:26:14;;;;;;;6.17;4.03;;;9.90;99.90;;;;;;1019851;29;20012;-67
2022/03/18 01:26:44;;;;;;;6.43;4.57;;;9.90;99.90;;;;;;1019253;29;20063;-68
2022/03/18 01:27:15;;;;;;;7.90;4.37;;;9.90;99.90;;;;;;1015563;29;20066;-68
2022/03/18 01:27:46;;;;;;;5.93;3.73;;;9.90;99.90;;;;;;1016527;29;20027;-67
2022/03/18 01:28:17;;;;;;;7.30;4.50;;;9.90;99.90;;;;;;1017708;29;20057;-69
2022/03/18 01:28:47;;;;;;;6.43;4.50;;;9.90;99.90;;;;;;1019136;29;20055;-69
2022/03/18 01:29:18;;;;;;;7.40;4.93;;;9.90;99.90;;;;;;1019372;29;20031;-67
2022/03/18 01:29:48;;;;;;;7.13;4.47;;;9.90;99.90;;;;;;1015464;29;20098;-69
2022/03/18 01:30:19;;;;;;;8.90;4.57;;;9.90;99.90;;;;;;1015270;29;20193;-68
2022/03/18 01:30:49;;;;;;;6.83;4.23;;;9.90;99.90;;;;;;1018078;29;20047;-69
2022/03/18 01:31:21;;;;;;;7.10;4.70;;;9.90;99.90;;;;;;1015519;29;20027;-69
2022/03/18 01:31:51;;;;;;;5.57;3.97;;;9.90;99.90;;;;;;1019000;28;20035;-67
2022/03/18 01:32:22;;;;;;;6.03;3.80;;;9.90;99.90;;;;;;1019355;29;20016;-69
2022/03/18 01:32:53;;;;;;;6.60;4.30;;;9.90;99.90;;;;;;1019290;29;20123;-69
2022/03/18 01:33:24;;;;;;;7.93;3.97;;;9.90;99.90;;;;;;1015269;29;20078;-69
2022/03/18 01:33:55;;;;;;;6.63;4.47;;;9.90;99.90;;;;;;1019373;29;20012;-69
2022/03/18 01:34:25;;;;;;;6.57;4.47;;;9.90;99.90;;;;;;1019202;29;20024;-69
2022/03/18 01:34:56;;;;;;;6.43;4.37;;;9.90;99.90;;;;;;1015775;29;20039;-69
2022/03/18 01:35:27;;;;;;;7.67;4.50;;;9.80;99.90;;;;;;1018983;29;20043;-69
2022/03/18 01:35:58;;;;;;;6.38;4.32;;;9.80;99.90;;;;;;1019264;29;20024;-68
2022/03/18 01:36:28;;;;;;;5.97;4.40;;;9.80;99.90;;;;;;1017850;28;20106;-68
2022/03/18 01:36:59;;;;;;;6.70;4.40;;;9.80;99.90;;;;;;1015382;29;20027;-68
2022/03/18 01:37:29;;;;;;;6.30;3.90;;;9.80;99.90;;;;;;1016706;29;20051;-69
2022/03/18 01:38:00;;;;;;;8.53;4.13;;;9.80;99.90;;;;;;1019487;29;20022;-67
2022/03/18 01:38:31;;;;;;;7.83;4.03;;;9.80;99.90;;;;;;1019356;29;20079;-67
2022/03/18 01:39:01;;;;;;;6.17;3.83;;;9.80;99.90;;;;;;1019553;29;20107;-68
2022/03/18 01:39:32;;;;;;;6.43;4.50;;;9.80;99.90;;;;;;1018643;29;20115;-67
2022/03/18 01:40:04;;;;;;;7.40;4.23;;;9.80;99.90;;;;;;1019486;29;20028;-67
2022/03/18 01:40:34;;;;;;;8.38;5.03;;;9.80;99.90;;;;;;1017896;29;20088;-68
2022/03/18 01:41:05;;;;;;;6.63;3.83;;;9.80;99.90;;;;;;1019024;29;20023;-68
2022/03/18 01:41:36;;;;;;;6.07;4.13;;;9.80;99.90;;;;;;1019280;29;20055;-69
2022/03/18 01:42:06;;;;;;;8.00;4.03;;;9.70;99.90;;;;;;1019644;29;20046;-69
2022/03/18 01:42:37;;;;;;;7.13;4.33;;;9.80;99.90;;;;;;1019184;29;20028;-67
2022/03/18 01:43:11;;;;;;;5.70;4.30;;;9.70;99.90;;;;;;1019402;29;20459;-68
2022/03/18 01:43:47;;;;;;;7.68;4.28;;;9.80;99.90;;;;;;1018920;29;20038;-68
2022/03/18 01:44:18;;;;;;;5.88;4.00;;;9.80;99.90;;;;;;1016580;29;20099;-68
2022/03/18 01:44:48;;;;;;;5.45;3.95;;;9.80;99.90;;;;;;1018158;29;20032;-68
2022/03/18 01:45:19;;;;;;;8.07;4.37;;;9.80;99.90;;;;;;1019631;29;20024;-68
2022/03/18 01:45:51;;;;;;;6.23;4.03;;;9.80;99.90;;;;;;1015310;29;20039;-69
2022/03/18 01:46:21;;;;;;;8.88;4.97;;;9.70;99.90;;;;;;1019369;29;20027;-68
2022/03/18 01:46:52;;;;;;;6.60;4.30;;;9.70;99.90;;;;;;1019228;29;20031;-69
2022/03/18 01:47:22;;;;;;;6.83;4.00;;;9.70;99.90;;;;;;1019098;29;20746;-68
2022/03/18 01:47:53;;;;;;;5.83;3.80;;;9.70;99.90;;;;;;1019712;29;20102;-69
2022/03/18 01:48:42;;;;;;;6.23;4.17;;;9.70;99.90;;;;;;1019291;29;20031;-68
2022/03/18 01:49:40;;;;;;;6.78;3.88;;;9.70;99.90;;;;;;1019633;29;20038;-67
2022/03/18 01:50:13;;;;;;;7.28;4.22;;;9.70;99.90;;;;;;1013308;29;20380;-68
2022/03/18 01:50:44;;;;;;;8.80;4.53;;;9.70;99.90;;;;;;1015563;29;20027;-67
2022/03/18 01:51:15;;;;;;;5.90;4.13;;;9.70;99.90;;;;;;1015984;29;20064;-68
2022/03/18 01:51:46;;;;;;;5.80;3.80;;;9.70;99.90;;;;;;1019410;29;20027;-68
2022/03/18 01:52:17;;;;;;;7.50;4.20;;;9.70;99.90;;;;;;1019490;29;20118;-68
2022/03/18 01:52:48;;;;;;;6.03;4.43;;;9.70;99.90;;;;;;1019666;29;20420;-70
2022/03/18 01:53:18;;;;;;;7.63;4.10;;;9.70;99.90;;;;;;1019293;29;20092;-67
2022/03/18 01:54:44;;;;;;;5.37;3.80;;;9.70;99.90;;;;;;1019111;29;20031;-68
2022/03/18 01:54:49;;;;;;;5.57;3.50;;;9.70;99.90;;;;;;1016725;29;20498;-69
2022/03/18 01:55:20;;;;;;;7.45;4.55;;;9.70;99.90;;;;;;1019040;29;20119;-69
2022/03/18 01:55:54;;;;;;;9.80;4.72;;;9.70;99.90;;;;;;1015464;29;20056;-68
2022/03/18 01:56:26;;;;;;;8.85;4.25;;;9.60;99.90;;;;;;1015254;29;20012;-68
2022/03/18 01:56:56;;;;;;;7.28;4.43;;;9.70;99.90;;;;;;1016162;29;20031;-70
2022/03/18 01:57:28;;;;;;;8.40;4.07;;;9.60;99.90;;;;;;1015503;29;20119;-69
2022/03/18 01:57:58;;;;;;;5.18;4.00;;;9.60;99.90;;;;;;1019294;29;20337;-69
2022/03/18 01:58:29;;;;;;;6.33;4.53;;;9.60;99.90;;;;;;1015379;29;20683;-69
2022/03/18 01:58:59;;;;;;;7.77;4.67;;;9.60;99.90;;;;;;1011771;29;20410;-67
2022/03/18 01:59:30;;;;;;;8.60;4.73;;;9.60;99.90;;;;;;1015292;29;20738;-69
2022/03/18 02:00:00;;;;;;;6.03;4.00;;;9.60;99.90;;;;;;1019467;29;20123;-69
2022/03/18 02:00:31;;;;;;;4.83;4.00;;;9.60;99.90;;;;;;1015051;29;20491;-71
2022/03/18 02:01:03;;;;;;;6.23;4.30;;;9.60;99.90;;;;;;1015533;29;20027;-69
2022/03/18 02:01:34;;;;;;;6.68;4.15;;;9.60;99.90;;;;;;1015098;29;20256;-69
2022/03/18 02:02:05;;;;;;;7.50;4.53;;;9.60;99.90;;;;;;1015824;29;20551;-68
2022/03/18 02:02:36;;;;;;;7.33;3.93;;;9.60;99.90;;;;;;1019141;29;20556;-69
2022/03/18 02:03:07;;;;;;;7.43;4.20;;;9.60;99.90;;;;;;1017400;29;20034;-67
2022/03/18 02:03:37;;;;;;;5.50;4.03;;;9.60;99.90;;;;;;1018180;29;20787;-69
2022/03/18 02:05:35;;;;;;;6.30;4.47;;;9.60;99.90;;;;;;1015436;29;20097;-69
2022/03/18 02:10:03;;;;;;;7.57;4.03;;;9.60;99.90;;;;;;1019446;29;20054;-69
2022/03/18 02:10:53;;;;;;;6.32;4.03;;;9.60;99.90;;;;;;1019300;29;20104;-69
2022/03/18 02:13:09;;;;;;;7.32;4.78;;;9.60;99.90;;;;;;1019720;29;20048;-69
2022/03/18 02:19:35;;;;;;;7.57;4.90;;;9.50;99.90;;;;;;1016143;29;20030;-69
2022/03/18 02:20:43;;;;;;;10.60;4.95;;;9.50;99.90;;;;;;1015701;29;20016;-67
2022/03/18 02:21:34;;;;;;;9.32;4.25;;;9.50;99.90;;;;;;1015286;29;20028;-69
2022/03/18 02:28:42;;;;;;;9.68;4.38;;;9.40;99.90;;;;;;1018626;29;20480;-68
2022/03/18 02:29:13;;;;;;;7.63;4.53;;;9.40;99.90;;;;;;1015372;29;20058;-69
2022/03/18 02:33:46;;;;;;;7.72;4.85;;;9.30;99.90;;;;;;1015534;29;20032;-70
2022/03/18 02:35:26;;;;;;;8.68;5.18;;;9.30;99.90;;;;;;1015072;29;20501;-69
2022/03/18 02:36:46;;;;;;;7.97;4.45;;;9.30;99.90;;;;;;1014615;29;20032;-68
2022/03/18 02:37:35;;;;;;;9.50;4.40;;;9.30;99.90;;;;;;1015716;29;20024;-71
2022/03/18 02:38:06;;;;;;;7.70;4.90;;;9.30;99.90;;;;;;1015010;29;20051;-69
2022/03/18 02:38:55;;;;;;;9.03;5.23;;;9.30;99.90;;;;;;1017119;29;20111;-69
2022/03/18 02:40:33;;;;;;;6.90;4.88;;;9.20;99.90;;;;;;1016557;29;20092;-69
2022/03/18 02:42:11;;;;;;;6.05;4.57;;;9.30;99.90;;;;;;1015955;29;20083;-69
2022/03/18 02:44:09;;;;;;;7.72;4.85;;;9.20;99.90;;;;;;1015156;29;20703;-67
2022/03/18 02:46:06;;;;;;;6.05;4.22;;;9.20;99.90;;;;;;1015377;29;20179;-70
2022/03/18 02:49:11;;;;;;;9.18;4.57;;;9.20;99.90;;;;;;1015602;29;20047;-70
2022/03/18 02:54:58;;;;;;;7.40;5.03;;;9.20;99.90;;;;;;1015453;29;20083;-68
2022/03/18 02:56:06;;;;;;;6.50;4.53;;;9.20;99.90;;;;;;1015346;29;20063;-68
2022/03/18 02:57:14;;;;;;;7.38;4.38;;;9.20;99.90;;;;;;1015412;29;20031;-69
2022/03/18 02:58:04;;;;;;;11.60;6.30;;;9.20;99.90;;;;;;1015274;29;20476;-69
2022/03/18 02:58:53;;;;;;;7.97;4.30;;;9.20;99.90;;;;;;1018027;29;20057;-68
2022/03/18 02:59:24;;;;;;;7.05;5.00;;;9.20;99.90;;;;;;1018944;29;20186;-68
2022/03/18 02:59:54;;;;;;;10.23;5.13;;;9.20;99.90;;;;;;1019443;29;20047;-68
2022/03/18 03:00:44;;;;;;;7.07;4.23;;;9.20;99.90;;;;;;1019407;29;20026;-69
2022/03/18 03:02:59;;;;;;;6.82;4.90;;;9.20;99.90;;;;;;1014962;29;20403;-69
2022/03/18 03:10:32;;;;;;;7.78;4.95;;;9.00;99.90;;;;;;1019505;29;20030;-68
2022/03/18 03:14:27;;;;;;;5.90;4.20;;;9.00;99.90;;;;;;1015507;29;20048;-68
2022/03/18 03:16:42;;;;;;;7.03;4.90;;;9.00;99.90;;;;;;1015136;29;20210;-68
2022/03/18 03:20:08;;;;;;;7.70;4.72;;;8.90;99.90;;;;;;1015233;29;20047;-68
2022/03/18 03:21:47;;;;;;;8.02;4.93;;;8.90;99.90;;;;;;1015435;29;20035;-68
2022/03/18 03:22:17;;;;;;;6.25;4.50;;;8.90;99.90;;;;;;1015022;29;20032;-69
2022/03/18 03:22:48;;;;;;;7.77;5.07;;;8.90;99.90;;;;;;1014895;29;20482;-69
2022/03/18 03:23:19;;;;;;;7.23;4.30;;;8.90;99.90;;;;;;1015207;29;20038;-67
2022/03/18 03:23:50;;;;;;;6.47;4.38;;;8.90;99.90;;;;;;1015489;29;20518;-69
2022/03/18 03:24:20;;;;;;;8.67;4.73;;;8.90;99.90;;;;;;1010914;29;20477;-69
2022/03/18 03:24:51;;;;;;;8.13;4.93;;;8.90;99.90;;;;;;1011093;29;20016;-69
2022/03/18 03:25:21;;;;;;;6.13;4.90;;;8.90;99.90;;;;;;1011092;29;20056;-68
2022/03/18 03:28:27;;;;;;;7.55;5.15;;;8.90;99.90;;;;;;1015586;29;20035;-68
2022/03/18 03:29:16;;;;;;;8.30;4.77;;;8.90;99.90;;;;;;1018348;29;20042;-68
2022/03/18 03:30:42;;;;;;;7.80;4.75;;;8.90;99.90;;;;;;1018816;29;20027;-69
2022/03/18 03:31:13;;;;;;;7.70;5.13;;;8.90;99.90;;;;;;1015537;29;20020;-69
2022/03/18 03:33:11;;;;;;;7.88;4.30;;;8.80;99.90;;;;;;1015091;29;20043;-69
2022/03/18 03:33:44;;;;;;;6.85;4.30;;;8.80;99.90;;;;;;1015292;29;20047;-69
2022/03/18 03:34:14;;;;;;;7.15;4.85;;;8.80;99.90;;;;;;1015745;29;20038;-69
2022/03/18 03:34:45;;;;;;;6.07;4.40;;;8.80;99.90;;;;;;1014739;29;20032;-69
2022/03/18 03:35:16;;;;;;;9.20;4.93;;;8.80;99.90;;;;;;1015021;29;20107;-68
2022/03/18 03:35:46;;;;;;;6.43;4.50;;;8.80;99.90;;;;;;1015014;29;20035;-69
2022/03/18 03:36:18;;;;;;;8.93;4.83;;;8.80;99.90;;;;;;1014885;29;20028;-69
2022/03/18 03:37:06;;;;;;;6.47;4.68;;;8.80;99.90;;;;;;1015175;29;20026;-68
2022/03/18 03:37:37;;;;;;;7.63;4.75;;;8.80;99.90;;;;;;1014781;29;20087;-68
2022/03/18 03:38:14;;;;;;;6.27;4.57;;;8.80;99.90;;;;;;1014831;29;20024;-69
2022/03/18 03:38:45;;;;;;;7.35;4.63;;;8.80;99.90;;;;;;1015178;29;20051;-68
2022/03/18 03:39:15;;;;;;;9.93;4.90;;;8.80;99.90;;;;;;1015507;29;20052;-68
2022/03/18 03:39:46;;;;;;;7.30;4.37;;;8.80;99.90;;;;;;1017544;29;20022;-68
2022/03/18 03:40:17;;;;;;;7.93;4.87;;;8.80;99.90;;;;;;1018935;29;20036;-70
2022/03/18 03:40:47;;;;;;;6.67;4.17;;;8.80;99.90;;;;;;1018965;29;20016;-68
2022/03/18 03:41:21;;;;;;;8.57;4.73;;;8.80;99.90;;;;;;1018840;29;20317;-68
2022/03/18 03:41:51;;;;;;;6.60;5.22;;;8.80;99.90;;;;;;1019782;29;20020;-68
2022/03/18 03:42:22;;;;;;;6.07;4.43;;;8.80;99.90;;;;;;1018685;29;20024;-68
2022/03/18 03:42:53;;;;;;;6.33;4.20;;;8.80;99.90;;;;;;1018653;29;20402;-68
2022/03/18 03:43:23;;;;;;;7.10;4.60;;;8.80;99.90;;;;;;1018833;29;20031;-68
2022/03/18 03:43:54;;;;;;;9.27;4.80;;;8.80;99.90;;;;;;1019042;29;20072;-68
2022/03/18 03:44:24;;;;;;;8.00;4.67;;;8.80;99.90;;;;;;1018858;29;20794;-68
2022/03/18 03:44:55;;;;;;;7.50;4.60;;;8.80;99.90;;;;;;1019357;29;20921;-69
2022/03/18 03:45:26;;;;;;;6.03;3.77;;;8.80;99.90;;;;;;1019071;29;20443;-69
2022/03/18 03:45:56;;;;;;;8.93;4.75;;;8.80;99.90;;;;;;1018790;29;20012;-69
2022/03/18 03:46:27;;;;;;;6.77;4.20;;;8.80;99.90;;;;;;1018490;29;20023;-67
2022/03/18 03:46:57;;;;;;;5.63;4.23;;;8.80;99.90;;;;;;1019135;29;20030;-70
2022/03/18 03:47:28;;;;;;;7.83;5.03;;;8.80;99.90;;;;;;1018655;29;20024;-69
2022/03/18 03:47:58;;;;;;;8.10;4.57;;;8.80;99.90;;;;;;1018204;29;20051;-70
2022/03/18 03:48:29;;;;;;;6.87;4.10;;;8.80;99.90;;;;;;1019301;29;20092;-69
2022/03/18 03:49:00;;;;;;;7.63;4.53;;;8.80;99.90;;;;;;1019045;29;20024;-69
2022/03/18 03:49:30;;;;;;;6.63;4.40;;;8.80;99.90;;;;;;1018957;29;20031;-69
2022/03/18 03:50:01;;;;;;;7.87;5.07;;;8.80;99.90;;;;;;1014932;29;20025;-69
2022/03/18 03:50:32;;;;;;;6.20;4.00;;;8.80;99.90;;;;;;1014806;29;20084;-69
2022/03/18 03:51:03;;;;;;;7.57;4.53;;;8.80;99.90;;;;;;1015135;29;20123;-69
2022/03/18 03:51:34;;;;;;;6.88;4.40;;;8.80;99.90;;;;;;1018846;29;20411;-68
2022/03/18 03:52:05;;;;;;;7.75;4.90;;;8.80;99.90;;;;;;1018913;29;20391;-70
2022/03/18 03:52:36;;;;;;;7.53;4.43;;;8.80;99.90;;;;;;1018884;29;20422;-68
2022/03/18 03:53:08;;;;;;;6.90;4.35;;;8.80;99.90;;;;;;1018882;29;20063;-68
2022/03/18 03:53:38;;;;;;;5.88;4.32;;;8.80;99.90;;;;;;1017282;29;20083;-68
2022/03/18 03:54:09;;;;;;;6.13;4.30;;;8.80;99.90;;;;;;1011321;29;20031;-68
2022/03/18 03:54:42;;;;;;;8.23;4.37;;;8.80;99.90;;;;;;1013055;29;20087;-69
2022/03/18 03:55:13;;;;;;;7.53;4.30;;;8.80;99.90;;;;;;1014699;29;20028;-68
2022/03/18 03:55:44;;;;;;;7.50;4.55;;;8.80;99.90;;;;;;1015272;29;20091;-67
2022/03/18 03:56:14;;;;;;;8.90;4.57;;;8.80;99.90;;;;;;1019439;29;20141;-70
2022/03/18 03:56:45;;;;;;;6.60;4.40;;;8.70;99.90;;;;;;1022518;29;20027;-69
2022/03/18 03:57:15;;;;;;;6.43;4.57;;;8.80;99.90;;;;;;1019432;29;20124;-68
2022/03/18 03:57:46;;;;;;;6.33;4.43;;;8.70;99.90;;;;;;1019227;29;20079;-68
2022/03/18 03:58:17;;;;;;;7.87;3.87;;;8.70;99.90;;;;;;1018699;29;20016;-68
2022/03/18 03:58:48;;;;;;;6.80;4.60;;;8.70;99.90;;;;;;1018716;29;20106;-68
2022/03/18 03:59:19;;;;;;;7.55;4.60;;;8.70;99.90;;;;;;1018615;29;20028;-70
2022/03/18 03:59:49;;;;;;;6.30;4.90;;;8.70;99.90;;;;;;1016719;29;20103;-68
2022/03/18 04:00:20;;;;;;;8.80;4.80;;;8.70;99.90;;;;;;1010823;29;20065;-68
2022/03/18 04:00:51;;;;;;;7.17;4.27;;;8.70;99.90;;;;;;1010950;29;20111;-69
2022/03/18 04:01:21;;;;;;;7.80;4.93;;;8.70;99.90;;;;;;1010953;29;20017;-68
2022/03/18 04:01:52;;;;;;;8.10;4.00;;;8.70;99.90;;;;;;1011055;29;20023;-69
2022/03/18 04:02:23;;;;;;;7.20;4.37;;;8.70;99.90;;;;;;1015035;29;20016;-68
2022/03/18 04:02:53;;;;;;;6.43;4.13;;;8.70;99.90;;;;;;1015394;29;20022;-68
2022/03/18 04:03:23;;;;;;;6.90;4.60;;;8.70;99.90;;;;;;1015154;29;20051;-69
2022/03/18 04:03:54;;;;;;;6.10;4.30;;;8.70;99.90;;;;;;1015334;29;20043;-69
2022/03/18 04:04:26;;;;;;;7.80;4.37;;;8.70;99.90;;;;;;1015155;29;20016;-69
2022/03/18 04:04:59;;;;;;;9.25;5.05;;;8.60;99.90;;;;;;1015646;29;20553;-70
2022/03/18 04:05:33;;;;;;;8.30;4.82;;;8.60;99.90;;;;;;1014534;29;20226;-69
2022/03/18 04:06:03;;;;;;;7.68;4.70;;;8.70;99.90;;;;;;1014951;29;20071;-69
2022/03/18 04:06:34;;;;;;;9.23;4.43;;;8.60;99.90;;;;;;1014674;29;20472;-70
2022/03/18 04:07:04;;;;;;;8.17;4.80;;;8.60;99.90;;;;;;1014728;29;20016;-69
2022/03/18 04:07:36;;;;;;;7.80;4.70;;;8.60;99.90;;;;;;1015554;29;20512;-68
2022/03/18 04:08:07;;;;;;;7.18;5.18;;;8.60;99.90;;;;;;1018960;29;20170;-68
2022/03/18 04:08:37;;;;;;;5.57;4.40;;;8.60;99.90;;;;;;1018598;29;20031;-70
2022/03/18 04:09:08;;;;;;;7.33;4.50;;;8.60;99.90;;;;;;1018636;29;20052;-70
2022/03/18 04:09:38;;;;;;;6.33;4.17;;;8.60;99.90;;;;;;1018628;29;20022;-70
2022/03/18 04:10:10;;;;;;;7.73;4.33;;;8.60;99.90;;;;;;1019606;29;20034;-71
2022/03/18 04:10:42;;;;;;;8.18;4.32;;;8.60;99.90;;;;;;1018425;29;20420;-70
2022/03/18 04:11:13;;;;;;;7.90;4.57;;;8.60;99.90;;;;;;1018956;29;20483;-69
2022/03/18 04:11:43;;;;;;;6.88;4.65;;;8.60;99.90;;;;;;1018487;29;20463;-68
2022/03/18 04:12:14;;;;;;;10.23;4.47;;;8.60;99.90;;;;;;1018851;29;20526;-69
2022/03/18 04:12:45;;;;;;;6.90;4.40;;;8.50;99.90;;;;;;1018995;29;20012;-69
2022/03/18 04:13:15;;;;;;;6.93;4.80;;;8.60;99.90;;;;;;1018553;29;20267;-69
2022/03/18 04:14:05;;;;;;;6.47;4.53;;;8.60;99.90;;;;;;1010774;29;20017;-72
2022/03/18 04:14:35;;;;;;;6.05;4.47;;;8.60;99.90;;;;;;1014809;29;20032;-70
2022/03/18 04:15:08;;;;;;;6.40;4.30;;;8.60;99.90;;;;;;1010728;29;20055;-69
2022/03/18 04:16:28;;;;;;;8.43;5.05;;;8.60;99.90;;;;;;1014640;29;20065;-70
2022/03/18 04:16:58;;;;;;;6.83;4.50;;;8.60;99.90;;;;;;1015036;29;20092;-68
2022/03/18 04:17:40;;;;;;;5.40;4.40;;;8.50;99.90;;;;;;1015210;29;20028;-69
2022/03/18 04:18:10;;;;;;;6.15;4.07;;;8.60;99.90;;;;;;1015347;29;20573;-69
2022/03/18 04:18:41;;;;;;;8.23;4.97;;;8.50;99.90;;;;;;1014986;29;20788;-69
2022/03/18 04:20:01;;;;;;;6.22;4.35;;;8.50;99.90;;;;;;1014960;29;20071;-70
2022/03/18 04:20:33;;;;;;;6.50;4.50;;;8.50;99.90;;;;;;1014981;29;20024;-70
2022/03/18 04:21:03;;;;;;;8.55;4.40;;;8.50;99.90;;;;;;1010881;29;20031;-69
2022/03/18 04:21:53;;;;;;;7.20;4.30;;;8.50;99.90;;;;;;1010950;29;20031;-68
2022/03/18 04:22:23;;;;;;;7.32;4.53;;;8.50;99.90;;;;;;1013317;29;20096;-68
2022/03/18 04:22:54;;;;;;;7.50;4.60;;;8.50;99.90;;;;;;1015337;29;20081;-70
2022/03/18 04:23:24;;;;;;;6.73;4.30;;;8.60;99.90;;;;;;1014852;29;20039;-69
2022/03/18 04:25:04;;;;;;;6.35;4.72;;;8.50;99.90;;;;;;1010851;29;20067;-69
2022/03/18 04:25:34;;;;;;;7.15;4.53;;;8.50;99.90;;;;;;1015069;29;20052;-68
2022/03/18 04:26:05;;;;;;;7.57;4.53;;;8.50;99.90;;;;;;1015265;29;20020;-68
2022/03/18 04:26:36;;;;;;;9.17;4.60;;;8.60;99.90;;;;;;1015011;29;20359;-68
2022/03/18 04:27:55;;;;;;;8.10;4.65;;;8.50;99.90;;;;;;1014934;29;20640;-71
2022/03/18 04:28:26;;;;;;;5.67;3.80;;;8.60;99.90;;;;;;1014668;29;20028;-70
2022/03/18 04:28:56;;;;;;;7.23;4.97;;;8.50;99.90;;;;;;1017050;29;20455;-70
2022/03/18 04:29:45;;;;;;;7.23;4.37;;;8.60;99.90;;;;;;1018745;29;20047;-69
2022/03/18 04:30:35;;;;;;;8.18;5.20;;;8.60;99.90;;;;;;1014641;29;20143;-69
2022/03/18 04:33:21;;;;;;;6.63;4.90;;;8.70;99.90;;;;;;1015123;29;20805;-69
2022/03/18 04:33:52;;;;;;;12.02;5.05;;;8.70;99.90;;;;;;1015060;29;20054;-69
2022/03/18 04:34:23;;;;;;;7.10;4.30;;;8.70;99.90;;;;;;1015320;29;20039;-69
2022/03/18 04:34:53;;;;;;;8.57;4.33;;;8.80;99.90;;;;;;1014887;29;20064;-69
2022/03/18 04:35:24;;;;;;;6.97;4.60;;;8.80;99.90;;;;;;1014711;29;20036;-71
2022/03/18 04:35:54;;;;;;;8.27;5.30;;;8.80;99.90;;;;;;1017200;29;20031;-69
2022/03/18 04:36:25;;;;;;;6.37;4.50;;;8.80;99.90;;;;;;1014739;29;20040;-68
2022/03/18 04:36:55;;;;;;;6.57;4.40;;;8.90;99.90;;;;;;1014907;29;20115;-69
2022/03/18 04:37:45;;;;;;;7.43;4.60;;;8.90;99.90;;;;;;1018747;29;20034;-68
2022/03/18 04:38:15;;;;;;;8.60;4.85;;;8.90;99.90;;;;;;1018982;29;20091;-68